createdAt,value
2022-10-22T00:00:03.260Z,72.09
2022-10-22T00:02:31.921Z,72.36
2022-10-22T00:04:58.896Z,72.59
2022-10-22T00:07:25.953Z,72.92
2022-10-22T00:09:52.856Z,72.96
2022-10-22T00:12:20.206Z,72.98
2022-10-22T00:14:47.258Z,72.59
2022-10-22T00:17:14.538Z,73.10
2022-10-22T00:19:41.801Z,73.29
2022-10-22T00:22:10.197Z,72.90
2022-10-22T00:24:39.047Z,72.61
2022-10-22T00:27:07.985Z,72.91
2022-10-22T00:29:34.893Z,72.69
2022-10-22T00:32:02.034Z,72.79
2022-10-22T00:34:28.890Z,72.55
2022-10-22T00:36:56.248Z,72.09
2022-10-22T00:39:26.034Z,71.45
2022-10-22T00:41:55.454Z,70.99
2022-10-22T00:44:59.755Z,71.21
2022-10-22T00:47:31.375Z,70.76
2022-10-22T00:50:00.105Z,70.36
2022-10-22T00:52:27.513Z,70.18
2022-10-22T00:54:54.758Z,70.59
2022-10-22T00:57:22.853Z,70.53
2022-10-22T00:59:50.122Z,70.11
2022-10-22T01:02:17.322Z,70.88
2022-10-22T01:04:44.863Z,71.42
2022-10-22T01:07:20.632Z,71.38
2022-10-22T01:10:03.339Z,71.23
2022-10-22T01:12:45.103Z,70.21
2022-10-22T01:15:14.597Z,70.09
2022-10-22T01:17:52.755Z,69.75
2022-10-22T01:20:58.458Z,68.74
2022-10-22T01:23:43.899Z,69.29
2022-10-22T01:26:21.740Z,69.78
2022-10-22T01:29:10.211Z,69.02
2022-10-22T01:31:44.594Z,69.22
2022-10-22T01:34:16.019Z,70.02
2022-10-22T01:36:44.895Z,71.19
2022-10-22T01:39:15.085Z,71.79
2022-10-22T01:41:45.483Z,70.66
2022-10-22T01:44:29.725Z,70.19
2022-10-22T01:47:17.385Z,69.99
2022-10-22T01:50:05.808Z,69.22
2022-10-22T01:52:38.417Z,69.09
2022-10-22T01:55:28.425Z,69.48
2022-10-22T01:58:38.379Z,68.87
2022-10-22T02:01:17.932Z,69.24
2022-10-22T02:03:58.547Z,69.85
2022-10-22T02:06:27.488Z,69.68
2022-10-22T02:08:55.735Z,69.72
2022-10-22T02:11:22.749Z,70.49
2022-10-22T02:13:53.612Z,70.30
2022-10-22T02:16:32.453Z,69.65
2022-10-22T02:19:03.988Z,69.56
2022-10-22T02:21:31.834Z,69.38
2022-10-22T02:23:59.074Z,69.67
2022-10-22T02:26:33.947Z,69.73
2022-10-22T02:29:25.831Z,69.85
2022-10-22T02:31:55.985Z,70.65
2022-10-22T02:34:27.786Z,69.82
2022-10-22T02:36:55.641Z,69.89
2022-10-22T02:39:23.264Z,69.12
2022-10-22T02:41:50.161Z,69.30
2022-10-22T02:44:21.448Z,69.24
2022-10-22T02:46:49.951Z,68.68
2022-10-22T02:49:16.989Z,68.80
2022-10-22T02:51:43.818Z,68.18
2022-10-22T02:54:10.810Z,68.78
2022-10-22T02:56:37.696Z,68.59
2022-10-22T02:59:04.639Z,69.34
2022-10-22T03:01:31.551Z,68.71
2022-10-22T03:03:58.455Z,69.12
2022-10-22T03:08:57.938Z,68.93
2022-10-22T03:11:24.897Z,68.37
2022-10-22T03:13:51.817Z,68.19
2022-10-22T03:16:18.678Z,68.35
2022-10-22T03:18:45.592Z,67.90
2022-10-22T03:21:21.852Z,68.41
2022-10-22T03:23:49.215Z,68.30
2022-10-22T03:26:16.176Z,68.38
2022-10-22T03:28:43.706Z,68.43
2022-10-22T03:31:10.636Z,67.90
2022-10-22T03:33:37.501Z,67.97
2022-10-22T03:36:04.686Z,68.02
2022-10-22T03:38:31.765Z,67.65
2022-10-22T03:40:59.026Z,67.13
2022-10-22T03:43:26.063Z,67.64
2022-10-22T03:45:52.962Z,67.59
2022-10-22T03:48:20.124Z,67.20
2022-10-22T03:50:46.992Z,66.75
2022-10-22T03:53:13.919Z,66.70
2022-10-22T03:55:41.787Z,66.90
2022-10-22T03:58:08.750Z,66.96
2022-10-22T04:00:36.562Z,66.30
2022-10-22T04:03:04.284Z,66.85
2022-10-22T04:05:33.676Z,66.77
2022-10-22T04:08:00.648Z,67.22
2022-10-22T04:10:27.495Z,67.05
2022-10-22T04:12:54.428Z,66.62
2022-10-22T04:15:21.324Z,66.67
2022-10-22T04:17:48.535Z,67.53
2022-10-22T04:20:15.446Z,67.28
2022-10-22T04:22:42.467Z,66.93
2022-10-22T04:25:09.777Z,67.55
2022-10-22T04:27:36.863Z,66.75
2022-10-22T04:30:06.635Z,66.49
2022-10-22T04:32:33.502Z,66.75
2022-10-22T04:35:00.476Z,66.72
2022-10-22T04:37:27.296Z,66.80
2022-10-22T04:39:54.126Z,66.56
2022-10-22T04:42:20.972Z,66.48
2022-10-22T04:44:47.829Z,66.63
2022-10-22T04:47:14.739Z,65.97
2022-10-22T04:49:41.681Z,66.56
2022-10-22T04:52:08.585Z,66.36
2022-10-22T04:54:35.486Z,66.34
2022-10-22T04:57:02.364Z,66.40
2022-10-22T04:59:29.299Z,66.54
2022-10-22T05:01:56.248Z,66.52
2022-10-22T05:04:23.149Z,66.97
2022-10-22T05:06:50.045Z,66.73
2022-10-22T05:09:19.490Z,66.50
2022-10-22T05:11:49.154Z,66.14
2022-10-22T05:14:19.064Z,66.34
2022-10-22T05:16:48.563Z,65.89
2022-10-22T05:19:24.218Z,65.91
2022-10-22T05:21:53.209Z,65.64
2022-10-22T05:24:20.537Z,65.29
2022-10-22T05:26:53.431Z,65.32
2022-10-22T05:29:21.045Z,64.45
2022-10-22T05:31:48.134Z,64.40
2022-10-22T05:34:15.958Z,64.66
2022-10-22T05:36:42.981Z,63.27
2022-10-22T05:39:10.453Z,63.38
2022-10-22T05:41:37.758Z,62.70
2022-10-22T05:44:05.478Z,63.01
2022-10-22T05:46:36.040Z,63.70
2022-10-22T05:49:05.828Z,63.63
2022-10-22T05:51:34.747Z,63.84
2022-10-22T05:54:04.104Z,63.33
2022-10-22T05:56:35.054Z,62.95
2022-10-22T06:01:38.066Z,63.15
2022-10-22T06:04:07.902Z,63.80
2022-10-22T06:06:44.559Z,63.84
2022-10-22T06:09:26.488Z,63.54
2022-10-22T06:11:54.058Z,63.57
2022-10-22T06:14:21.127Z,63.24
2022-10-22T06:16:49.177Z,63.10
2022-10-22T06:19:17.922Z,62.78
2022-10-22T06:21:45.048Z,62.34
2022-10-22T06:24:12.411Z,61.83
2022-10-22T06:26:39.856Z,61.43
2022-10-22T06:29:07.499Z,61.27
2022-10-22T06:31:37.086Z,60.05
2022-10-22T06:34:10.485Z,59.80
2022-10-22T06:36:37.893Z,59.40
2022-10-22T06:39:05.588Z,58.93
2022-10-22T06:41:32.539Z,58.88
2022-10-22T06:44:00.217Z,58.64
2022-10-22T06:46:27.276Z,58.68
2022-10-22T06:48:57.525Z,58.07
2022-10-22T06:51:25.600Z,58.33
2022-10-22T06:53:53.918Z,58.07
2022-10-22T06:56:23.927Z,57.68
2022-10-22T06:58:51.981Z,57.83
2022-10-22T07:01:21.155Z,56.77
2022-10-22T07:03:50.963Z,57.51
2022-10-22T07:06:18.551Z,57.29
2022-10-22T07:08:45.516Z,56.46
2022-10-22T07:11:18.096Z,56.22
2022-10-22T07:13:45.522Z,55.77
2022-10-22T07:16:13.038Z,54.80
2022-10-22T07:18:41.217Z,54.60
2022-10-22T07:21:09.828Z,54.23
2022-10-22T07:23:37.278Z,53.39
2022-10-22T07:26:07.526Z,52.70
2022-10-22T07:28:36.724Z,52.66
2022-10-22T07:31:03.862Z,52.52
2022-10-22T07:33:30.798Z,51.01
2022-10-22T07:35:59.933Z,51.23
2022-10-22T07:38:27.511Z,51.26
2022-10-22T07:40:55.113Z,50.71
2022-10-22T07:43:22.312Z,50.29
2022-10-22T07:45:49.251Z,50.62
2022-10-22T07:48:16.506Z,50.50
2022-10-22T07:53:11.392Z,50.35
2022-10-22T07:55:38.290Z,49.93
2022-10-22T07:58:05.290Z,49.80
2022-10-22T08:00:32.262Z,49.58
2022-10-22T08:02:59.186Z,48.72
2022-10-22T08:05:26.198Z,48.33
2022-10-22T08:07:53.116Z,47.85
2022-10-22T08:10:20.127Z,47.79
2022-10-22T08:12:47.153Z,47.42
2022-10-22T08:15:14.071Z,47.17
2022-10-22T08:17:41.200Z,46.40
2022-10-22T08:20:08.670Z,46.50
2022-10-22T08:22:35.695Z,46.25
2022-10-22T08:25:02.704Z,46.11
2022-10-22T08:27:29.630Z,45.74
2022-10-22T08:29:56.560Z,45.60
2022-10-22T08:32:23.526Z,45.55
2022-10-22T08:34:50.507Z,44.99
2022-10-22T08:37:17.933Z,45.11
2022-10-22T08:39:45.317Z,44.39
2022-10-22T08:42:33.811Z,43.96
2022-10-22T08:45:14.775Z,44.29
2022-10-22T08:48:08.746Z,43.53
2022-10-22T08:50:48.932Z,42.75
2022-10-22T08:53:20.015Z,42.18
2022-10-22T08:55:47.641Z,41.88
2022-10-22T08:58:40.412Z,41.81
2022-10-22T09:01:15.198Z,41.60
2022-10-22T09:03:46.806Z,40.23
2022-10-22T09:06:25.724Z,40.52
2022-10-22T09:08:53.928Z,40.46
2022-10-22T09:11:39.297Z,39.72
2022-10-22T09:14:09.490Z,39.34
2022-10-22T09:16:36.349Z,39.15
2022-10-22T09:19:12.350Z,38.93
2022-10-22T09:21:46.417Z,38.27
2022-10-22T09:24:37.082Z,38.50
2022-10-22T09:27:16.695Z,38.50
2022-10-22T09:29:44.815Z,38.67
2022-10-22T09:32:11.949Z,38.84
2022-10-22T09:34:39.142Z,39.41
2022-10-22T09:37:10.040Z,39.33
2022-10-22T09:39:41.177Z,39.56
2022-10-22T09:42:08.646Z,39.78
2022-10-22T10:16:27.600Z,41.08
2022-10-22T10:19:10.570Z,40.54
2022-10-22T10:21:56.307Z,39.81
2022-10-22T10:24:23.133Z,40.09
2022-10-22T10:26:58.608Z,39.55
2022-10-22T10:29:25.525Z,39.60
2022-10-22T10:32:07.629Z,39.54
2022-10-22T10:34:53.773Z,40.24
2022-10-22T10:37:29.967Z,38.45
2022-10-22T10:40:28.900Z,38.41
2022-10-22T10:43:05.299Z,38.07
2022-10-22T10:45:42.601Z,38.17
2022-10-22T10:48:12.554Z,38.73
2022-10-22T10:50:55.176Z,38.13
2022-10-22T10:53:27.989Z,38.80
2022-10-22T10:56:22.024Z,38.72
2022-10-22T10:58:54.820Z,39.34
2022-10-22T11:01:27.825Z,38.55
2022-10-22T11:04:31.919Z,38.60
2022-10-22T11:07:11.009Z,38.58
2022-10-22T11:10:14.471Z,38.69
2022-10-22T11:12:48.962Z,39.59
2022-10-22T11:15:18.803Z,38.99
2022-10-22T11:17:48.882Z,38.61
2022-10-22T11:20:41.366Z,38.74
2022-10-22T11:23:20.322Z,39.02
2022-10-22T11:25:49.727Z,38.70
2022-10-22T11:28:19.555Z,38.70
2022-10-22T11:30:53.634Z,39.09
2022-10-22T11:33:25.766Z,39.02
2022-10-22T11:35:53.562Z,38.65
2022-10-22T11:38:26.418Z,38.98
2022-10-22T11:41:13.519Z,38.60
2022-10-22T11:43:55.147Z,38.10
2022-10-22T11:46:22.120Z,38.77
2022-10-22T11:49:13.369Z,38.26
2022-10-22T11:51:42.706Z,37.95
2022-10-22T11:54:29.834Z,37.87
2022-10-22T11:57:22.488Z,38.30
2022-10-22T11:59:56.554Z,38.74
2022-10-22T12:02:29.442Z,38.60
2022-10-22T12:05:20.362Z,38.01
2022-10-22T12:08:00.273Z,38.05
2022-10-22T12:10:37.050Z,37.85
2022-10-22T12:13:24.838Z,37.46
2022-10-22T12:15:57.529Z,37.50
2022-10-22T12:18:31.718Z,36.98
2022-10-22T12:20:58.679Z,37.54
2022-10-22T12:23:30.896Z,37.22
2022-10-22T12:25:58.607Z,37.42
2022-10-22T12:28:25.524Z,37.56
2022-10-22T12:30:52.421Z,37.86
2022-10-22T12:33:24.093Z,37.93
2022-10-22T12:35:54.145Z,37.56
2022-10-22T12:38:24.391Z,38.00
2022-10-22T12:40:54.689Z,37.57
2022-10-22T12:43:29.922Z,37.22
2022-10-22T12:45:59.146Z,37.40
2022-10-22T12:48:34.089Z,37.64
2022-10-22T12:51:04.181Z,37.27
2022-10-22T12:53:35.419Z,37.41
2022-10-22T12:56:05.575Z,36.80
2022-10-22T12:58:42.576Z,37.03
2022-10-22T13:01:14.370Z,36.99
2022-10-22T13:03:47.307Z,37.53
2022-10-22T13:06:23.917Z,37.36
2022-10-22T13:09:00.087Z,37.60
2022-10-22T13:12:01.720Z,37.96
2022-10-22T13:14:32.194Z,37.76
2022-10-22T13:17:12.965Z,37.11
2022-10-22T13:19:44.318Z,37.45
2022-10-22T13:22:26.189Z,37.96
2022-10-22T13:24:54.233Z,37.80
2022-10-22T13:27:21.209Z,37.56
2022-10-22T13:29:48.422Z,36.89
2022-10-22T13:32:31.752Z,36.93
2022-10-22T13:35:01.049Z,36.54
2022-10-22T13:37:30.220Z,36.24
2022-10-22T13:39:57.277Z,35.97
2022-10-22T13:42:25.015Z,35.45
2022-10-22T13:44:51.862Z,41.41
2022-10-22T13:47:29.601Z,43.88
2022-10-22T13:50:00.237Z,45.70
2022-10-22T13:52:40.758Z,46.41
2022-10-22T13:55:25.757Z,45.96
2022-10-22T13:57:55.517Z,45.84
2022-10-22T14:00:26.448Z,47.14
2022-10-22T14:02:57.228Z,47.00
2022-10-22T14:05:24.130Z,47.50
2022-10-22T14:07:52.168Z,47.57
2022-10-22T14:10:22.912Z,48.57
2022-10-22T14:12:53.390Z,47.88
2022-10-22T14:15:27.909Z,47.50
2022-10-22T14:18:00.585Z,48.33
2022-10-22T14:20:33.065Z,48.73
2022-10-22T14:23:20.097Z,48.69
2022-10-22T14:25:47.429Z,49.77
2022-10-22T14:28:14.708Z,49.76
2022-10-22T14:30:41.756Z,50.68
2022-10-22T14:33:22.122Z,50.71
2022-10-22T14:35:51.570Z,50.66
2022-10-22T14:38:18.629Z,50.51
2022-10-22T14:40:45.948Z,51.03
2022-10-22T14:43:31.319Z,50.71
2022-10-22T14:45:58.940Z,50.89
2022-10-22T14:48:25.766Z,50.56
2022-10-22T14:50:52.727Z,50.15
2022-10-22T14:53:19.638Z,50.19
2022-10-22T14:55:49.242Z,49.91
2022-10-22T14:58:16.466Z,48.93
2022-10-22T15:00:44.313Z,49.10
2022-10-22T15:03:11.910Z,49.58
2022-10-22T15:05:44.603Z,49.71
2022-10-22T15:08:13.696Z,50.04
2022-10-22T15:10:41.615Z,50.08
2022-10-22T15:13:09.201Z,50.45
2022-10-22T15:15:39.530Z,50.90
2022-10-22T15:18:07.524Z,50.67
2022-10-22T15:20:34.423Z,50.95
2022-10-22T15:23:01.418Z,51.32
2022-10-22T15:25:28.884Z,50.99
2022-10-22T15:28:00.674Z,51.25
2022-10-22T15:30:28.901Z,50.79
2022-10-22T15:32:55.772Z,50.52
2022-10-22T15:35:22.684Z,50.80
2022-10-22T15:37:51.926Z,49.89
2022-10-22T15:40:18.866Z,49.92
2022-10-22T15:42:46.742Z,49.79
2022-10-22T15:45:13.842Z,50.06
2022-10-22T15:47:41.020Z,50.11
2022-10-22T15:50:08.629Z,50.88
2022-10-22T15:52:35.683Z,52.56
2022-10-22T15:55:07.159Z,53.88
2022-10-22T15:57:34.070Z,54.78
2022-10-22T16:00:00.945Z,55.15
2022-10-22T16:02:27.826Z,55.58
2022-10-22T16:04:54.735Z,55.94
2022-10-22T16:07:23.988Z,56.07
2022-10-22T16:09:55.031Z,57.10
2022-10-22T16:12:21.953Z,57.40
2022-10-22T16:14:52.657Z,57.95
2022-10-22T16:17:19.501Z,57.83
2022-10-22T16:19:48.277Z,57.63
2022-10-22T16:22:15.851Z,58.35
2022-10-22T16:24:43.106Z,58.42
2022-10-22T16:27:10.733Z,58.56
2022-10-22T16:29:39.001Z,58.30
2022-10-22T16:32:06.553Z,58.07
2022-10-22T16:34:33.442Z,58.38
2022-10-22T16:37:00.485Z,58.69
2022-10-22T16:39:27.430Z,58.25
2022-10-22T16:41:54.429Z,58.50
2022-10-22T16:44:21.327Z,58.99
2022-10-22T16:46:48.349Z,59.52
2022-10-22T16:49:15.206Z,59.27
2022-10-22T16:51:42.108Z,59.34
2022-10-22T16:54:12.623Z,59.70
2022-10-22T16:56:39.696Z,59.22
2022-10-22T16:59:07.067Z,59.60
2022-10-22T17:01:36.883Z,59.46
2022-10-22T17:04:07.584Z,59.25
2022-10-22T17:06:34.489Z,59.38
2022-10-22T17:09:01.493Z,59.23
2022-10-22T17:11:34.732Z,59.11
2022-10-22T17:14:02.706Z,58.96
2022-10-22T17:16:30.194Z,59.27
2022-10-22T17:18:58.244Z,58.84
2022-10-22T17:21:25.432Z,59.19
2022-10-22T17:23:56.946Z,59.22
2022-10-22T17:26:27.215Z,58.82
2022-10-22T17:28:55.110Z,59.01
2022-10-22T17:31:23.758Z,59.02
2022-10-22T17:33:52.551Z,58.75
2022-10-22T17:36:20.889Z,59.06
2022-10-22T17:38:50.374Z,59.18
2022-10-22T17:41:20.275Z,59.26
2022-10-22T17:43:47.837Z,59.49
2022-10-22T17:46:17.676Z,59.50
2022-10-22T17:48:44.893Z,59.43
2022-10-22T17:51:13.638Z,59.69
2022-10-22T17:53:43.142Z,59.52
2022-10-22T17:56:12.401Z,59.50
2022-10-22T17:58:39.286Z,59.80
2022-10-22T18:01:06.647Z,59.45
2022-10-22T18:03:34.516Z,59.06
2022-10-22T18:06:07.419Z,58.61
2022-10-22T18:08:34.696Z,58.73
2022-10-22T18:11:10.088Z,58.64
2022-10-22T18:13:37.681Z,58.39
2022-10-22T18:16:04.894Z,58.56
2022-10-22T18:18:31.918Z,58.47
2022-10-22T18:21:00.594Z,58.26
2022-10-22T18:23:28.238Z,57.48
2022-10-22T18:25:55.199Z,57.17
2022-10-22T18:28:22.205Z,57.37
2022-10-22T18:30:49.661Z,57.21
2022-10-22T18:33:19.429Z,57.32
2022-10-22T18:35:46.845Z,56.92
2022-10-22T18:38:13.860Z,56.78
2022-10-22T18:40:46.949Z,56.76
2022-10-22T18:43:15.132Z,57.21
2022-10-22T18:45:46.840Z,56.81
2022-10-22T18:48:16.173Z,56.67
2022-10-22T18:50:43.629Z,56.52
2022-10-22T18:53:10.724Z,56.50
2022-10-22T18:55:39.671Z,57.10
2022-10-22T18:58:07.144Z,57.42
2022-10-22T19:00:35.809Z,57.63
2022-10-22T19:03:03.397Z,57.15
2022-10-22T19:05:30.778Z,56.87
2022-10-22T19:07:57.833Z,57.45
2022-10-22T19:10:24.707Z,56.77
2022-10-22T19:12:51.682Z,56.24
2022-10-22T19:15:18.625Z,56.40
2022-10-22T19:17:45.713Z,56.20
2022-10-22T19:20:13.391Z,55.70
2022-10-22T19:22:40.280Z,55.30
2022-10-22T19:25:11.158Z,55.48
2022-10-22T19:27:40.168Z,56.39
2022-10-22T19:30:07.756Z,56.08
2022-10-22T19:32:34.954Z,55.64
2022-10-22T19:35:02.114Z,54.68
2022-10-22T19:37:29.033Z,54.76
2022-10-22T19:39:55.873Z,53.11
2022-10-22T19:42:22.797Z,51.83
2022-10-22T19:44:49.729Z,51.61
2022-10-22T19:47:16.871Z,51.18
2022-10-22T19:49:43.903Z,52.22
2022-10-22T19:52:10.844Z,52.04
2022-10-22T19:54:40.895Z,52.16
2022-10-22T19:57:08.621Z,51.45
2022-10-22T19:59:35.752Z,51.16
2022-10-22T20:02:04.073Z,51.51
2022-10-22T20:04:31.267Z,51.50
2022-10-22T20:06:58.723Z,51.27
2022-10-22T20:09:25.687Z,51.50
2022-10-22T20:11:52.580Z,50.34
2022-10-22T20:14:19.447Z,49.70
2022-10-22T20:16:46.468Z,49.63
2022-10-22T20:19:16.277Z,49.62
2022-10-22T20:21:44.669Z,49.09
2022-10-22T20:24:12.822Z,49.92
2022-10-22T20:26:39.725Z,49.55
2022-10-22T20:29:07.798Z,49.46
2022-10-22T20:31:36.047Z,49.14
2022-10-22T20:34:03.021Z,49.51
2022-10-22T20:36:31.852Z,48.82
2022-10-22T20:39:06.398Z,49.57
2022-10-22T20:41:35.034Z,49.12
2022-10-22T20:44:01.994Z,49.03
2022-10-22T20:46:31.344Z,50.35
2022-10-22T20:49:07.391Z,50.49
2022-10-22T20:51:36.208Z,50.20
2022-10-22T20:54:03.973Z,49.44
2022-10-22T20:56:31.781Z,48.93
2022-10-22T20:59:05.533Z,48.73
2022-10-22T21:01:44.579Z,48.15
2022-10-22T21:04:11.568Z,48.52
2022-10-22T21:06:40.361Z,49.20
2022-10-22T21:09:08.782Z,48.65
2022-10-22T21:11:36.817Z,48.02
2022-10-22T21:14:05.682Z,47.11
2022-10-22T21:16:32.657Z,47.00
2022-10-22T21:19:00.067Z,46.79
2022-10-22T21:21:27.049Z,46.97
2022-10-22T21:23:54.495Z,47.47
2022-10-22T21:26:21.630Z,47.71
2022-10-22T21:28:49.129Z,47.48
2022-10-22T21:31:21.977Z,47.59
2022-10-22T21:33:50.613Z,47.70
2022-10-22T21:36:22.481Z,47.35
2022-10-22T21:38:51.463Z,47.10
2022-10-22T21:41:19.783Z,47.42
2022-10-22T21:43:46.756Z,46.92
2022-10-22T21:46:19.320Z,47.30
2022-10-22T21:48:46.932Z,47.12
2022-10-22T21:51:16.995Z,46.60
2022-10-22T21:53:44.134Z,46.58
2022-10-22T21:56:18.111Z,47.08
2022-10-22T21:58:45.216Z,46.64
2022-10-22T22:01:12.934Z,46.67
2022-10-22T22:03:46.019Z,46.68
2022-10-22T22:06:13.193Z,47.08
2022-10-22T22:08:40.768Z,46.67
2022-10-22T22:11:13.823Z,46.97
2022-10-22T22:13:40.972Z,46.07
2022-10-22T22:16:16.225Z,45.87
2022-10-22T22:18:43.435Z,46.50
2022-10-22T22:21:13.378Z,45.71
2022-10-22T22:23:43.017Z,45.51
2022-10-22T22:26:10.997Z,45.25
2022-10-22T22:28:38.593Z,45.48
2022-10-22T22:31:22.119Z,45.58
2022-10-22T22:33:49.385Z,46.23
2022-10-22T22:36:16.380Z,45.83
2022-10-22T22:38:43.226Z,46.61
2022-10-22T22:41:10.121Z,47.01
2022-10-22T22:43:37.887Z,45.87
2022-10-22T22:46:07.743Z,46.57
2022-10-22T22:48:35.278Z,46.74
2022-10-22T22:51:04.068Z,46.37
2022-10-22T22:53:31.762Z,45.99
2022-10-22T22:56:13.999Z,46.08
2022-10-22T22:58:41.928Z,46.60
2022-10-22T23:01:29.806Z,47.29
2022-10-22T23:03:59.868Z,47.05
2022-10-22T23:06:29.372Z,47.82
2022-10-22T23:08:58.130Z,47.76
2022-10-22T23:11:26.322Z,48.32
2022-10-22T23:13:55.580Z,48.83
2022-10-22T23:16:24.667Z,49.02
2022-10-22T23:18:54.131Z,48.69
2022-10-22T23:21:26.974Z,48.95
2022-10-22T23:23:57.187Z,49.74
2022-10-22T23:26:45.828Z,50.05
2022-10-22T23:29:19.548Z,49.91
2022-10-22T23:31:47.278Z,49.96
2022-10-22T23:34:17.483Z,49.59
2022-10-22T23:36:45.169Z,49.69
2022-10-22T23:39:14.620Z,49.08
2022-10-22T23:41:41.707Z,48.74
2022-10-22T23:44:09.882Z,48.32
2022-10-22T23:46:40.455Z,47.98
2022-10-22T23:49:09.391Z,47.80
2022-10-22T23:51:36.505Z,48.22
2022-10-22T23:54:06.501Z,47.91
2022-10-22T23:56:36.144Z,48.14
2022-10-22T23:59:04.135Z,47.98
